Time;durP1;ratioP1;P1;durP2;ratioP2;P2;SDS_P1;SDS_P2;PMS_P1;PMS_P2;Temp;Humidity;BMP_temperature;BMP_pressure;BME280_temperature;BME280_humidity;BME280_pressure;Samples;Min_cycle;Max_cycle;Signal;HPM_P1;HPM_P2
2023/02/10 00:00:18;;;;;;;36.90;26.93;;;5.50;45.40;;;;;;5041371;28;20223;-82
2023/02/10 00:03:01;;;;;;;37.10;27.73;;;5.50;44.80;;;;;;5039168;28;20247;-82
2023/02/10 00:05:29;;;;;;;34.77;27.23;;;5.50;46.20;;;;;;5040466;28;20173;-82
2023/02/10 00:07:55;;;;;;;35.83;26.00;;;5.50;46.00;;;;;;5039778;28;20200;-84
2023/02/10 00:10:20;;;;;;;34.87;26.87;;;5.50;46.10;;;;;;5035373;28;20273;-88
2023/02/10 00:13:02;;;;;;;37.43;27.27;;;5.50;46.10;;;;;;5026826;28;20174;-80
2023/02/10 00:15:27;;;;;;;34.03;26.27;;;5.40;47.60;;;;;;5017263;28;20264;-83
2023/02/10 00:17:56;;;;;;;35.63;28.07;;;5.40;47.80;;;;;;5024627;28;20174;-81
2023/02/10 00:20:23;;;;;;;40.07;26.73;;;5.50;48.50;;;;;;5030401;28;20201;-86
2023/02/10 00:22:48;;;;;;;34.63;26.97;;;5.50;47.80;;;;;;5024615;28;20166;-88
2023/02/10 00:25:14;;;;;;;37.27;27.30;;;5.50;46.60;;;;;;5038710;28;20507;-87
2023/02/10 00:27:42;;;;;;;34.10;26.27;;;5.40;47.50;;;;;;5020228;28;20242;-87
2023/02/10 00:30:08;;;;;;;36.13;26.93;;;5.40;48.80;;;;;;5027205;28;20206;-85
2023/02/10 00:32:36;;;;;;;37.60;27.20;;;5.40;48.10;;;;;;5022825;28;20174;-85
2023/02/10 00:35:05;;;;;;;35.43;27.23;;;5.40;48.10;;;;;;5020503;28;20182;-85
2023/02/10 00:37:32;;;;;;;37.23;28.37;;;5.30;48.40;;;;;;5018570;28;20171;-89
2023/02/10 00:39:57;;;;;;;32.57;26.27;;;5.30;49.00;;;;;;5023844;28;20268;-87
2023/02/10 00:42:23;;;;;;;40.83;28.17;;;5.40;50.60;;;;;;5024016;28;20224;-86
2023/02/10 00:44:49;;;;;;;35.10;26.20;;;5.40;50.70;;;;;;5043293;28;20677;-86
2023/02/10 00:47:16;;;;;;;35.07;27.60;;;5.30;50.50;;;;;;5042622;28;20180;-89
2023/02/10 00:49:42;;;;;;;36.37;28.80;;;5.30;50.00;;;;;;5042932;28;20185;-86
2023/02/10 00:52:08;;;;;;;35.23;27.90;;;5.50;47.30;;;;;;5024199;28;20181;-89
2023/02/10 00:54:35;;;;;;;35.57;29.13;;;5.60;43.40;;;;;;5023921;28;20245;-86
2023/02/10 00:57:01;;;;;;;36.60;28.67;;;5.70;39.90;;;;;;5041694;28;20174;-90
2023/02/10 00:59:27;;;;;;;36.77;28.53;;;5.60;38.70;;;;;;5044147;28;20281;-86
2023/02/10 01:01:52;;;;;;;37.47;29.40;;;5.40;41.30;;;;;;5039820;28;20245;-86
2023/02/10 01:04:18;;;;;;;35.20;28.40;;;5.30;45.50;;;;;;5042435;28;20187;-88
2023/02/10 01:06:44;;;;;;;38.80;27.93;;;5.10;47.40;;;;;;5039104;28;20652;-86
2023/02/10 01:09:09;;;;;;;36.00;28.13;;;5.10;49.90;;;;;;5036405;28;20178;-87
2023/02/10 01:11:37;;;;;;;36.37;27.13;;;5.00;51.40;;;;;;5034896;28;20513;-89
2023/02/10 01:14:03;;;;;;;38.07;29.37;;;5.10;53.30;;;;;;5038300;28;20212;-86
2023/02/10 01:16:30;;;;;;;39.17;28.80;;;5.20;54.80;;;;;;5021595;28;20177;-87
2023/02/10 01:18:58;;;;;;;38.67;28.73;;;5.20;53.40;;;;;;5037292;28;20185;-83
2023/02/10 01:21:23;;;;;;;38.63;29.73;;;5.40;52.10;;;;;;5036093;28;20166;-86
2023/02/10 01:23:50;;;;;;;37.00;28.33;;;5.30;49.80;;;;;;5035051;28;20192;-84
2023/02/10 01:26:16;;;;;;;37.03;28.70;;;5.40;50.50;;;;;;5051654;28;20595;-81
2023/02/10 01:28:43;;;;;;;39.63;27.93;;;5.30;52.70;;;;;;5041666;28;20173;-82
2023/02/10 01:31:20;;;;;;;35.90;28.30;;;5.40;52.80;;;;;;5037665;28;20173;-84
2023/02/10 01:33:50;;;;;;;39.10;29.13;;;5.40;52.80;;;;;;5034592;28;20204;-83
2023/02/10 01:36:21;;;;;;;40.03;29.27;;;5.50;51.50;;;;;;5054874;28;20181;-81
2023/02/10 01:38:47;;;;;;;38.40;28.63;;;5.50;50.20;;;;;;5049645;28;20261;-81
2023/02/10 01:41:20;;;;;;;37.47;28.10;;;5.60;48.50;;;;;;5059382;28;20212;-81
2023/02/10 01:44:41;;;;;;;36.30;27.47;;;5.70;44.70;;;;;;5042120;28;20247;-82
2023/02/10 01:47:25;;;;;;;37.20;28.20;;;5.70;44.90;;;;;;5054675;28;20169;-80
2023/02/10 01:49:53;;;;;;;40.17;29.47;;;5.60;47.10;;;;;;5049129;28;20170;-81
2023/02/10 01:52:29;;;;;;;39.10;29.17;;;5.60;47.70;;;;;;5069022;28;20192;-80
2023/02/10 01:55:17;;;;;;;37.77;28.20;;;5.50;49.60;;;;;;5056103;28;20224;-85
2023/02/10 01:58:04;;;;;;;39.33;29.30;;;5.50;51.40;;;;;;5058281;28;20178;-80
2023/02/10 02:07:49;;;;;;;40.43;29.17;;;5.70;52.70;;;;;;5042739;28;20200;-81
2023/02/10 02:10:47;;;;;;;38.87;28.00;;;5.80;50.10;;;;;;5037331;28;20201;-82
2023/02/10 02:13:51;;;;;;;36.77;28.97;;;5.80;48.80;;;;;;5035280;28;20216;-81
2023/02/10 02:16:55;;;;;;;41.97;30.20;;;5.80;49.70;;;;;;5033142;28;20299;-83
2023/02/10 02:20:45;;;;;;;42.03;29.97;;;6.00;46.00;;;;;;5034322;28;20165;-83
2023/02/10 02:23:14;;;;;;;37.50;27.93;;;5.80;46.50;;;;;;5027943;28;20170;-88
2023/02/10 02:26:17;;;;;;;44.97;29.43;;;5.70;48.50;;;;;;5036210;28;20300;-88
2023/02/10 02:29:16;;;;;;;39.73;29.43;;;5.60;52.30;;;;;;5037254;28;20181;-88
2023/02/10 02:32:07;;;;;;;41.87;29.63;;;5.70;53.10;;;;;;5036026;28;20252;-84
2023/02/10 02:34:38;;;;;;;41.43;30.17;;;5.70;53.20;;;;;;5035907;28;20635;-82
2023/02/10 02:37:15;;;;;;;43.93;30.90;;;5.60;55.70;;;;;;5034050;28;20177;-82
2023/02/10 02:39:42;;;;;;;41.90;29.33;;;5.50;58.40;;;;;;5037305;28;20194;-81
2023/02/10 02:42:37;;;;;;;41.23;28.57;;;5.40;61.40;;;;;;5035177;28;20545;-88
2023/02/10 02:45:13;;;;;;;44.70;29.73;;;5.30;64.00;;;;;;5026966;28;20186;-83
2023/02/10 02:48:17;;;;;;;45.23;30.47;;;5.30;67.20;;;;;;5019404;28;20170;-85
2023/02/10 02:50:57;;;;;;;40.90;30.30;;;5.40;68.00;;;;;;5016143;28;20179;-83
2023/02/10 02:53:46;;;;;;;45.00;31.40;;;5.40;63.70;;;;;;5018321;28;20285;-82
2023/02/10 02:56:53;;;;;;;41.80;30.73;;;5.40;65.60;;;;;;5018105;28;20170;-83
2023/02/10 03:00:12;;;;;;;44.70;29.37;;;5.50;61.80;;;;;;5062251;28;20199;-86
2023/02/10 03:02:42;;;;;;;46.63;31.50;;;5.50;61.30;;;;;;5068699;28;20176;-83
2023/02/10 03:05:09;;;;;;;45.37;32.53;;;5.50;61.90;;;;;;5042435;28;20181;-87
2023/02/10 03:07:35;;;;;;;48.60;30.13;;;5.60;62.30;;;;;;5034812;28;20653;-87
2023/02/10 03:10:02;;;;;;;44.07;31.47;;;5.30;64.80;;;;;;5018350;28;20190;-84
2023/02/10 03:12:29;;;;;;;47.07;30.63;;;5.10;70.90;;;;;;5018720;28;20162;-83
2023/02/10 03:14:54;;;;;;;44.37;30.90;;;5.10;76.60;;;;;;5020964;28;20264;-82
2023/02/10 03:17:20;;;;;;;49.43;32.53;;;5.30;79.60;;;;;;5023553;28;20623;-81
2023/02/10 03:19:47;;;;;;;49.67;31.80;;;5.10;81.00;;;;;;5035337;28;20182;-88
2023/02/10 03:22:12;;;;;;;46.07;31.30;;;5.20;82.80;;;;;;5018066;28;20270;-88
2023/02/10 03:24:38;;;;;;;52.37;32.10;;;5.30;84.60;;;;;;5017888;28;20205;-89
2023/02/10 03:27:05;;;;;;;47.63;32.03;;;5.50;86.20;;;;;;5021142;28;20209;-84
2023/02/10 03:29:31;;;;;;;51.10;33.20;;;5.50;85.00;;;;;;5028437;28;20174;-86
2023/02/10 03:32:01;;;;;;;52.47;34.87;;;5.60;83.20;;;;;;5022734;28;20182;-82
2023/02/10 03:34:29;;;;;;;49.87;32.17;;;5.70;81.70;;;;;;5018603;28;20214;-88
2023/02/10 03:36:55;;;;;;;49.73;32.40;;;5.80;79.20;;;;;;5018016;28;20175;-87
2023/02/10 03:39:21;;;;;;;52.07;33.63;;;5.80;77.30;;;;;;5018538;28;20197;-83
2023/02/10 03:41:46;;;;;;;57.67;33.43;;;6.00;77.70;;;;;;5017444;28;20182;-84
2023/02/10 03:44:12;;;;;;;51.57;33.60;;;5.90;78.20;;;;;;5016713;28;20232;-87
2023/02/10 03:46:38;;;;;;;54.77;34.00;;;5.90;78.30;;;;;;5034691;28;20666;-82
2023/02/10 03:49:05;;;;;;;59.10;33.23;;;6.00;77.60;;;;;;5029595;28;20194;-84
2023/02/10 03:51:33;;;;;;;60.13;34.33;;;6.00;75.90;;;;;;5023214;28;20222;-84
2023/02/10 03:53:59;;;;;;;54.50;33.77;;;5.80;77.50;;;;;;5034183;28;20198;-80
2023/02/10 03:56:24;;;;;;;58.37;34.40;;;5.80;79.60;;;;;;5033224;28;20166;-84
2023/02/10 03:58:50;;;;;;;62.17;37.50;;;5.80;80.50;;;;;;5050924;28;20193;-82
2023/02/10 04:01:17;;;;;;;61.83;35.40;;;6.00;82.20;;;;;;5038105;28;20176;-85
2023/02/10 04:03:45;;;;;;;57.97;35.13;;;6.00;76.00;;;;;;5038964;28;20162;-82
2023/02/10 04:06:20;;;;;;;61.97;36.60;;;6.10;78.60;;;;;;5029345;28;20534;-86
2023/02/10 04:08:55;;;;;;;58.10;35.50;;;6.00;80.60;;;;;;5018117;28;20181;-85
2023/02/10 04:11:20;;;;;;;60.20;37.33;;;6.00;78.50;;;;;;5020047;28;20261;-85
2023/02/10 04:13:46;;;;;;;61.57;37.17;;;6.20;78.30;;;;;;5025107;28;20225;-82
2023/02/10 04:16:14;;;;;;;70.53;36.10;;;6.10;75.70;;;;;;5028304;28;20249;-82
2023/02/10 04:18:42;;;;;;;62.80;37.60;;;6.20;73.70;;;;;;5032118;28;20236;-82
2023/02/10 04:21:10;;;;;;;57.10;36.37;;;6.00;75.70;;;;;;5025163;28;20221;-82
2023/02/10 04:23:38;;;;;;;64.17;36.30;;;6.10;77.70;;;;;;5041838;28;20163;-81
2023/02/10 04:26:04;;;;;;;59.97;37.63;;;6.00;79.00;;;;;;5021628;28;20257;-90
2023/02/10 04:29:09;;;;;;;60.53;37.40;;;6.10;75.60;;;;;;5022348;28;20190;-89
2023/02/10 04:31:35;;;;;;;62.43;38.17;;;6.20;69.10;;;;;;5019992;28;20185;-82
2023/02/10 04:34:01;;;;;;;62.97;38.40;;;6.10;67.60;;;;;;5021899;28;20218;-87
2023/02/10 04:36:26;;;;;;;68.90;38.73;;;6.00;69.90;;;;;;5025549;28;20227;-84
2023/02/10 04:38:58;;;;;;;58.33;36.93;;;6.10;72.90;;;;;;5017613;28;20214;-88
2023/02/10 04:41:24;;;;;;;67.80;37.47;;;5.70;75.20;;;;;;5021090;28;20177;-87
2023/02/10 04:43:52;;;;;;;73.27;40.33;;;5.80;77.60;;;;;;5022279;28;20178;-85
2023/02/10 04:46:18;;;;;;;62.37;38.20;;;5.80;77.80;;;;;;5019819;28;20178;-87
2023/02/10 04:48:44;;;;;;;71.33;38.77;;;5.80;78.90;;;;;;5020570;28;20548;-82
2023/02/10 04:51:12;;;;;;;66.07;37.37;;;5.90;78.40;;;;;;5019563;28;20638;-81
2023/02/10 04:53:40;;;;;;;62.70;36.90;;;5.80;76.40;;;;;;5026971;28;20904;-81
2023/02/10 04:56:06;;;;;;;56.60;36.73;;;5.70;77.80;;;;;;5024473;28;20193;-86
2023/02/10 04:58:33;;;;;;;63.73;38.37;;;5.50;79.00;;;;;;5024525;28;20178;-87
2023/02/10 05:00:59;;;;;;;62.77;37.63;;;5.60;82.50;;;;;;5019964;28;20170;-85
2023/02/10 05:03:25;;;;;;;57.70;37.20;;;5.60;82.70;;;;;;5026317;28;20175;-85
2023/02/10 05:05:57;;;;;;;69.27;38.20;;;5.70;77.90;;;;;;5018714;28;20669;-86
2023/02/10 05:08:23;;;;;;;64.80;37.10;;;5.60;75.40;;;;;;5015365;28;20175;-81
2023/02/10 05:10:50;;;;;;;62.87;37.47;;;5.40;76.70;;;;;;5032849;28;20174;-84
2023/02/10 05:13:16;;;;;;;63.53;38.13;;;5.30;80.20;;;;;;5016985;28;20190;-85
2023/02/10 05:15:42;;;;;;;64.97;38.53;;;5.20;82.90;;;;;;5023452;28;20194;-82
2023/02/10 05:18:09;;;;;;;61.93;37.67;;;5.10;86.50;;;;;;5018489;28;20626;-85
2023/02/10 05:20:55;;;;;;;64.90;39.17;;;5.30;88.10;;;;;;5031120;28;20253;-85
2023/02/10 05:23:20;;;;;;;58.97;37.10;;;5.20;78.10;;;;;;5021745;28;20221;-81
2023/02/10 05:25:47;;;;;;;61.67;38.60;;;5.00;81.80;;;;;;5018966;28;20543;-81
2023/02/10 05:28:12;;;;;;;59.40;37.20;;;4.90;86.50;;;;;;5017144;28;20208;-87
2023/02/10 05:30:39;;;;;;;58.53;35.80;;;4.90;89.90;;;;;;5015872;28;20178;-85
2023/02/10 05:33:08;;;;;;;57.33;35.77;;;4.80;90.70;;;;;;5017738;28;20177;-81
2023/02/10 05:35:34;;;;;;;55.87;37.67;;;4.70;91.80;;;;;;5016262;28;20269;-83
2023/02/10 05:38:01;;;;;;;57.77;36.40;;;4.70;92.10;;;;;;5017182;28;20209;-83
2023/02/10 05:40:27;;;;;;;60.37;37.03;;;4.70;92.10;;;;;;5018615;28;20181;-84
2023/02/10 05:42:53;;;;;;;58.83;36.23;;;4.60;92.30;;;;;;5020150;28;20166;-82
2023/02/10 05:45:19;;;;;;;56.97;35.10;;;4.60;92.40;;;;;;5023130;28;20536;-84
2023/02/10 05:47:47;;;;;;;54.80;35.60;;;4.60;92.70;;;;;;5027318;28;20189;-85
2023/02/10 05:50:13;;;;;;;59.13;35.60;;;4.40;93.10;;;;;;5028277;28;20204;-84
2023/02/10 05:52:40;;;;;;;53.13;35.43;;;4.40;93.80;;;;;;5032602;28;20166;-81
2023/02/10 05:55:13;;;;;;;53.13;36.47;;;4.60;93.90;;;;;;5031312;28;20223;-83
2023/02/10 05:57:41;;;;;;;54.07;34.80;;;4.60;91.90;;;;;;5031732;28;20178;-80
2023/02/10 06:00:14;;;;;;;56.13;35.87;;;4.80;88.90;;;;;;5035527;28;20680;-81
2023/02/10 06:02:43;;;;;;;54.27;35.73;;;4.50;83.40;;;;;;5034700;28;20186;-80
2023/02/10 06:05:12;;;;;;;55.50;36.37;;;4.40;85.50;;;;;;5024818;28;20194;-81
2023/02/10 06:07:57;;;;;;;55.23;36.03;;;4.20;88.30;;;;;;5029932;28;20204;-80
2023/02/10 06:10:29;;;;;;;58.73;34.57;;;4.20;91.20;;;;;;5032551;28;20186;-82
2023/02/10 06:13:49;;;;;;;52.67;34.57;;;4.20;91.50;;;;;;5023121;28;20171;-84
2023/02/10 06:16:17;;;;;;;50.67;33.57;;;4.30;92.20;;;;;;5019317;28;20239;-82
2023/02/10 06:18:47;;;;;;;56.20;35.97;;;4.30;90.20;;;;;;5021820;28;20177;-80
2023/02/10 06:21:18;;;;;;;49.90;34.93;;;4.10;90.50;;;;;;5027153;28;20205;-81
2023/02/10 06:24:26;;;;;;;50.40;34.33;;;4.10;91.20;;;;;;5031232;28;20190;-81
2023/02/10 06:27:21;;;;;;;55.60;36.80;;;4.00;91.80;;;;;;5022246;28;20197;-87
2023/02/10 06:29:48;;;;;;;54.40;34.67;;;4.00;92.40;;;;;;5023416;28;20167;-87
2023/02/10 06:32:22;;;;;;;52.43;34.73;;;4.10;92.50;;;;;;5028812;28;20174;-82
2023/02/10 06:34:50;;;;;;;54.03;35.23;;;4.00;92.80;;;;;;5037676;28;20212;-83
2023/02/10 06:37:17;;;;;;;50.97;36.23;;;4.00;92.80;;;;;;5038818;28;20335;-84
2023/02/10 06:40:23;;;;;;;56.23;35.63;;;4.00;92.70;;;;;;5032495;28;20185;-85
2023/02/10 06:42:55;;;;;;;55.33;35.23;;;4.00;93.20;;;;;;5029499;28;20210;-86
2023/02/10 06:45:24;;;;;;;57.53;35.53;;;4.10;92.50;;;;;;5026411;28;20194;-88
2023/02/10 06:47:49;;;;;;;56.37;36.33;;;4.10;91.70;;;;;;5032362;28;20174;-84
2023/02/10 06:50:17;;;;;;;60.40;36.03;;;4.20;91.10;;;;;;5025351;28;20192;-84
2023/02/10 06:52:43;;;;;;;49.83;34.53;;;4.30;89.60;;;;;;5021432;28;20185;-86
2023/02/10 06:55:09;;;;;;;52.70;38.10;;;4.10;87.00;;;;;;5024037;28;20236;-84
2023/02/10 06:57:36;;;;;;;54.00;36.80;;;4.20;86.90;;;;;;5020288;28;20303;-85
2023/02/10 07:00:09;;;;;;;53.03;36.10;;;4.20;86.20;;;;;;5020341;28;20181;-83
2023/02/10 07:02:35;;;;;;;55.93;37.50;;;4.00;88.10;;;;;;5028250;28;20162;-82
2023/02/10 07:05:04;;;;;;;50.50;35.47;;;4.10;90.00;;;;;;5035370;28;20193;-85
2023/02/10 07:07:32;;;;;;;52.83;35.73;;;3.80;91.10;;;;;;5017683;28;20178;-81
2023/02/10 07:10:00;;;;;;;53.50;36.90;;;3.80;91.90;;;;;;5020884;28;20171;-81
2023/02/10 07:12:26;;;;;;;51.80;37.13;;;3.80;92.50;;;;;;5025256;28;20178;-84
2023/02/10 07:14:52;;;;;;;54.23;37.77;;;3.90;92.90;;;;;;5025358;28;20241;-84
2023/02/10 07:17:19;;;;;;;58.57;36.90;;;3.80;93.10;;;;;;5026300;28;20190;-87
2023/02/10 07:19:45;;;;;;;53.10;37.07;;;3.80;92.90;;;;;;5023445;28;20642;-85
2023/02/10 07:22:11;;;;;;;55.90;36.57;;;3.90;92.60;;;;;;5024285;28;20204;-83
2023/02/10 07:24:37;;;;;;;51.83;36.50;;;3.90;93.40;;;;;;5026565;28;20606;-88
2023/02/10 07:27:03;;;;;;;50.27;36.23;;;3.90;93.50;;;;;;5026637;28;20296;-86
2023/02/10 07:29:29;;;;;;;52.83;36.70;;;4.00;93.60;;;;;;5026542;28;20713;-86
2023/02/10 07:31:59;;;;;;;58.63;37.43;;;4.00;93.30;;;;;;5027142;28;20201;-82
2023/02/10 07:34:26;;;;;;;54.93;38.13;;;4.00;93.50;;;;;;5026354;28;20222;-87
2023/02/10 07:36:55;;;;;;;54.50;37.90;;;4.10;93.30;;;;;;5025024;28;20201;-84
2023/02/10 07:39:23;;;;;;;58.63;39.13;;;4.20;93.50;;;;;;5038682;28;20182;-85
2023/02/10 07:41:50;;;;;;;60.73;39.30;;;4.40;91.40;;;;;;5022160;28;20171;-82
2023/02/10 07:44:16;;;;;;;65.33;37.93;;;4.40;86.50;;;;;;5022976;28;20252;-83
2023/02/10 07:46:42;;;;;;;54.53;38.13;;;4.30;87.60;;;;;;5020477;28;20174;-85
2023/02/10 07:49:08;;;;;;;60.00;37.80;;;4.40;89.20;;;;;;5019605;28;20531;-81
2023/02/10 07:51:36;;;;;;;60.97;41.40;;;4.40;87.00;;;;;;5021731;28;20505;-85
2023/02/10 07:54:03;;;;;;;55.47;38.63;;;4.40;90.00;;;;;;5020328;28;20674;-83
2023/02/10 07:56:29;;;;;;;61.73;39.57;;;4.50;88.40;;;;;;5019755;28;20171;-81
2023/02/10 07:58:55;;;;;;;61.30;40.90;;;4.50;89.50;;;;;;5021674;28;20205;-81
2023/02/10 08:01:25;;;;;;;60.40;41.47;;;4.50;88.10;;;;;;5023442;28;20202;-84
2023/02/10 08:03:53;;;;;;;61.80;41.87;;;4.40;90.70;;;;;;5025653;28;20289;-86
2023/02/10 08:06:22;;;;;;;67.33;41.97;;;4.60;91.80;;;;;;5025159;28;20584;-85
2023/02/10 08:08:51;;;;;;;62.03;41.27;;;4.80;91.90;;;;;;5030019;28;20162;-82
2023/02/10 08:11:17;;;;;;;64.20;43.63;;;4.90;86.80;;;;;;5031398;28;20245;-83
2023/02/10 08:13:45;;;;;;;65.67;42.53;;;5.00;81.90;;;;;;5028250;28;20229;-84
2023/02/10 08:16:21;;;;;;;65.37;44.30;;;5.00;78.80;;;;;;5024740;28;20196;-84
2023/02/10 08:18:47;;;;;;;67.40;42.70;;;4.90;80.30;;;;;;5030305;28;20190;-81
2023/02/10 08:21:16;;;;;;;69.77;43.03;;;4.90;84.20;;;;;;5029726;28;20202;-84
2023/02/10 08:23:41;;;;;;;67.03;44.73;;;5.00;85.50;;;;;;5028481;28;20175;-84
2023/02/10 08:26:10;;;;;;;61.30;44.67;;;4.90;84.90;;;;;;5034014;28;20196;-81
2023/02/10 08:28:39;;;;;;;67.60;43.10;;;4.90;84.00;;;;;;5032837;28;20182;-85
2023/02/10 08:31:07;;;;;;;72.10;46.73;;;4.90;86.60;;;;;;5027358;28;20178;-84
2023/02/10 08:33:38;;;;;;;78.20;47.47;;;4.90;90.30;;;;;;5023642;28;20206;-85
2023/02/10 08:36:13;;;;;;;72.97;45.60;;;4.80;92.10;;;;;;5026760;28;20175;-88
2023/02/10 08:38:39;;;;;;;80.03;46.53;;;4.80;94.70;;;;;;5022453;28;20188;-87
2023/02/10 08:41:07;;;;;;;78.70;48.73;;;4.80;95.80;;;;;;5027405;28;20222;-87
2023/02/10 08:43:32;;;;;;;73.13;47.33;;;5.00;97.20;;;;;;5028234;28;20170;-85
2023/02/10 08:46:06;;;;;;;81.00;49.23;;;5.10;97.20;;;;;;5038469;28;20217;-86
2023/02/10 08:48:33;;;;;;;75.97;49.50;;;5.00;98.00;;;;;;5030196;28;20190;-89
2023/02/10 08:51:23;;;;;;;77.50;48.87;;;5.00;99.40;;;;;;5025763;28;20162;-87
2023/02/10 08:53:51;;;;;;;78.73;46.23;;;5.10;99.90;;;;;;5024193;28;20205;-81
2023/02/10 08:56:18;;;;;;;78.17;48.07;;;5.00;99.90;;;;;;5025815;28;20237;-86
2023/02/10 08:58:46;;;;;;;80.17;48.20;;;5.10;99.90;;;;;;5024880;28;20254;-87
2023/02/10 09:01:18;;;;;;;86.27;48.67;;;5.10;99.90;;;;;;5034311;28;20165;-86
2023/02/10 09:03:45;;;;;;;76.93;45.67;;;5.20;99.90;;;;;;5035641;28;20194;-82
2023/02/10 09:06:32;;;;;;;73.70;47.43;;;5.30;99.90;;;;;;5033048;28;20260;-87
2023/02/10 09:09:25;;;;;;;86.60;47.80;;;5.40;99.90;;;;;;5021196;28;20650;-84
2023/02/10 09:11:53;;;;;;;78.03;48.53;;;5.30;99.90;;;;;;5024164;28;20205;-87
2023/02/10 09:14:19;;;;;;;85.33;49.00;;;5.40;99.90;;;;;;5024703;28;20206;-83
2023/02/10 09:16:44;;;;;;;85.83;48.03;;;5.50;99.90;;;;;;5030003;28;20264;-85
2023/02/10 09:19:10;;;;;;;88.07;50.37;;;5.40;99.90;;;;;;5027183;28;20185;-87
2023/02/10 09:21:37;;;;;;;80.33;47.83;;;5.30;99.90;;;;;;5023336;28;20169;-86
2023/02/10 09:24:06;;;;;;;82.10;48.47;;;5.30;99.90;;;;;;5025815;28;20654;-86
2023/02/10 09:26:33;;;;;;;84.53;48.90;;;5.30;99.90;;;;;;5022042;28;20662;-86
2023/02/10 09:28:59;;;;;;;83.17;47.47;;;5.40;99.90;;;;;;5024699;28;20537;-86
2023/02/10 09:31:27;;;;;;;86.00;49.30;;;5.40;99.90;;;;;;5020370;28;20182;-84
2023/02/10 09:34:00;;;;;;;88.13;49.77;;;5.40;99.90;;;;;;5024327;28;20202;-84
2023/02/10 09:36:26;;;;;;;112.20;53.10;;;5.50;99.90;;;;;;5022909;28;20276;-85
2023/02/10 09:38:51;;;;;;;96.60;49.83;;;5.60;99.90;;;;;;5021389;28;20174;-85
2023/02/10 09:41:32;;;;;;;98.97;52.07;;;5.80;99.90;;;;;;5023054;28;20178;-84
2023/02/10 09:44:19;;;;;;;90.20;51.13;;;5.70;99.90;;;;;;5025791;28;20200;-85
2023/02/10 09:47:15;;;;;;;106.53;52.13;;;5.70;99.90;;;;;;5025435;28;20639;-85
2023/02/10 09:50:08;;;;;;;97.57;51.97;;;5.90;99.90;;;;;;5020669;28;20166;-84
2023/02/10 09:52:49;;;;;;;104.17;52.67;;;5.90;99.90;;;;;;5017134;28;20197;-87
2023/02/10 09:55:26;;;;;;;104.37;53.33;;;5.80;99.90;;;;;;5022370;28;20198;-87
2023/02/10 09:58:00;;;;;;;105.50;51.17;;;5.80;99.90;;;;;;5020737;28;20230;-89
2023/02/10 10:00:34;;;;;;;100.10;52.73;;;5.70;99.90;;;;;;5018865;28;20186;-87
2023/02/10 10:03:04;;;;;;;109.37;54.80;;;5.80;99.90;;;;;;5021833;28;20240;-86
2023/02/10 10:05:40;;;;;;;104.83;52.17;;;5.80;99.90;;;;;;5020910;28;20166;-88
2023/02/10 10:08:42;;;;;;;99.63;51.77;;;5.90;99.90;;;;;;5024893;28;20178;-86
2023/02/10 10:11:55;;;;;;;107.80;53.17;;;5.80;99.90;;;;;;5026488;28;20177;-84
2023/02/10 10:14:34;;;;;;;110.77;55.00;;;5.90;99.90;;;;;;5021346;28;20269;-83
2023/02/10 10:17:25;;;;;;;106.07;53.87;;;5.90;99.90;;;;;;5028298;28;20200;-86
2023/02/10 10:20:31;;;;;;;107.87;54.07;;;5.90;99.90;;;;;;5031999;28;20196;-82
2023/02/10 10:23:15;;;;;;;98.37;51.33;;;5.90;99.90;;;;;;5041094;28;20170;-85
2023/02/10 10:26:01;;;;;;;94.20;50.93;;;6.00;99.90;;;;;;5041082;28;20185;-83
2023/02/10 10:28:40;;;;;;;93.57;50.03;;;6.00;99.90;;;;;;5037538;28;20174;-86
2023/02/10 10:31:14;;;;;;;96.93;50.87;;;6.00;99.90;;;;;;5037047;28;20178;-82
2023/02/10 10:34:15;;;;;;;90.70;52.10;;;6.00;99.90;;;;;;5040119;28;20186;-82
2023/02/10 10:36:54;;;;;;;84.07;46.37;;;6.20;99.90;;;;;;5036494;28;20241;-87
2023/02/10 10:39:44;;;;;;;75.13;44.53;;;6.40;99.90;;;;;;5032878;28;20177;-90
2023/02/10 10:42:25;;;;;;;71.83;41.97;;;6.40;99.90;;;;;;5027215;28;20170;-85
2023/02/10 10:44:59;;;;;;;68.07;40.37;;;6.40;99.90;;;;;;5029118;28;20170;-86
2023/02/10 10:47:46;;;;;;;77.10;44.07;;;6.30;99.90;;;;;;5029634;28;20185;-86
2023/02/10 10:50:21;;;;;;;68.70;36.53;;;6.20;99.90;;;;;;5028949;28;20174;-87
2023/02/10 10:52:51;;;;;;;72.43;41.50;;;6.20;99.90;;;;;;5026917;28;20240;-86
2023/02/10 10:55:39;;;;;;;72.13;41.87;;;6.10;99.90;;;;;;5024411;28;20274;-88
2023/02/10 10:58:26;;;;;;;68.07;38.83;;;6.20;99.90;;;;;;5025081;28;20583;-90
2023/02/10 11:00:58;;;;;;;63.73;36.93;;;6.30;99.90;;;;;;5020850;28;20197;-88
2023/02/10 11:03:23;;;;;;;63.87;38.60;;;6.20;99.90;;;;;;5032169;28;20174;-86
2023/02/10 11:06:05;;;;;;;64.77;36.57;;;6.30;99.90;;;;;;5038145;28;20258;-85
2023/02/10 11:08:45;;;;;;;67.60;38.90;;;6.40;99.90;;;;;;5036159;28;20194;-85
2023/02/10 11:11:16;;;;;;;70.77;39.00;;;6.50;99.90;;;;;;5033014;28;20172;-85
2023/02/10 11:13:55;;;;;;;63.27;36.43;;;6.70;99.90;;;;;;5026525;28;20688;-89
2023/02/10 11:16:24;;;;;;;73.10;39.30;;;6.80;99.90;;;;;;5027030;28;20189;-88
2023/02/10 11:18:59;;;;;;;66.53;37.87;;;7.00;99.90;;;;;;5027971;28;20205;-86
2023/02/10 11:21:42;;;;;;;73.30;40.17;;;7.00;99.90;;;;;;5038979;28;20221;-83
2023/02/10 11:24:34;;;;;;;50.17;31.10;;;6.90;99.90;;;;;;5028152;28;20166;-82
2023/02/10 11:27:16;;;;;;;46.67;27.60;;;6.80;99.90;;;;;;5026208;28;20213;-88
2023/02/10 11:29:54;;;;;;;50.80;26.37;;;6.80;99.90;;;;;;5029076;28;20647;-89
2023/02/10 11:32:27;;;;;;;55.90;30.63;;;6.60;99.90;;;;;;5019931;28;20253;-89
2023/02/10 11:34:57;;;;;;;53.97;29.83;;;6.60;99.90;;;;;;5023475;28;20244;-87
2023/02/10 11:37:32;;;;;;;55.10;30.33;;;6.60;99.90;;;;;;5016621;28;20261;-86
2023/02/10 11:40:03;;;;;;;55.97;29.63;;;6.60;99.90;;;;;;5017989;28;20177;-87
2023/02/10 11:42:35;;;;;;;57.00;30.63;;;6.60;99.90;;;;;;5019796;28;20174;-82
2023/02/10 11:45:03;;;;;;;49.37;30.17;;;6.70;99.90;;;;;;5023254;28;20174;-88
2023/02/10 11:47:31;;;;;;;51.07;29.27;;;6.80;99.90;;;;;;5044478;28;20672;-88
2023/02/10 11:49:58;;;;;;;50.97;29.97;;;6.80;99.90;;;;;;5044109;28;20256;-88
2023/02/10 11:52:29;;;;;;;53.60;31.40;;;6.90;99.90;;;;;;5039705;28;20231;-85
2023/02/10 11:54:55;;;;;;;53.37;30.27;;;6.90;99.90;;;;;;5039702;28;20223;-86
2023/02/10 12:01:14;;;;;;;54.80;32.57;;;7.10;99.90;;;;;;5040107;28;20230;-84
2023/02/10 12:04:01;;;;;;;56.50;32.60;;;7.10;99.90;;;;;;5016678;28;20752;-88
2023/02/10 12:06:41;;;;;;;50.00;30.87;;;7.10;99.90;;;;;;5040976;28;20173;-87
2023/02/10 12:09:38;;;;;;;47.53;29.53;;;7.10;99.90;;;;;;5048497;28;20621;-86
2023/02/10 12:12:16;;;;;;;42.50;28.33;;;7.00;99.90;;;;;;5047976;28;20185;-88
2023/02/10 12:15:07;;;;;;;44.83;27.93;;;7.10;99.90;;;;;;5043967;28;20264;-85
2023/02/10 12:17:57;;;;;;;44.13;27.23;;;7.10;99.90;;;;;;5050809;28;20177;-87
2023/02/10 12:20:33;;;;;;;39.50;26.13;;;7.00;99.90;;;;;;5050018;28;20177;-89
2023/02/10 12:23:11;;;;;;;41.97;26.27;;;7.20;99.90;;;;;;5039489;28;20638;-88
2023/02/10 12:25:47;;;;;;;40.13;26.70;;;7.20;99.90;;;;;;5043779;28;20260;-89
2023/02/10 12:28:27;;;;;;;45.57;29.23;;;7.50;99.90;;;;;;5054980;28;20154;-84
2023/02/10 12:31:43;;;;;;;45.87;28.17;;;7.40;99.90;;;;;;5052122;28;20166;-85
2023/02/10 12:34:46;;;;;;;44.23;28.50;;;7.50;99.90;;;;;;4989069;28;20253;-86
2023/02/10 12:37:51;;;;;;;41.40;27.80;;;7.60;99.90;;;;;;5046144;28;20186;-86
2023/02/10 12:40:46;;;;;;;43.27;28.33;;;7.60;97.50;;;;;;5057887;28;20219;-86
2023/02/10 12:43:43;;;;;;;46.73;28.93;;;7.40;97.30;;;;;;5059004;28;20154;-83
2023/02/10 12:46:25;;;;;;;44.37;29.00;;;7.40;98.20;;;;;;5057143;28;20238;-84
2023/02/10 12:49:29;;;;;;;42.23;28.47;;;7.40;98.10;;;;;;5048771;28;20204;-89
2023/02/10 12:52:01;;;;;;;47.40;28.40;;;7.50;96.70;;;;;;5052644;28;20153;-87
2023/02/10 12:55:01;;;;;;;45.40;29.67;;;7.40;96.50;;;;;;5042419;28;20228;-89
2023/02/10 12:57:42;;;;;;;50.03;28.27;;;7.30;98.20;;;;;;5042834;28;20166;-85
2023/02/10 13:00:19;;;;;;;47.00;30.20;;;7.40;99.40;;;;;;5045029;28;20173;-90
2023/02/10 13:02:55;;;;;;;48.17;30.67;;;7.40;99.90;;;;;;5042907;28;20170;-85
2023/02/10 13:05:29;;;;;;;47.90;29.60;;;7.40;99.90;;;;;;5046134;28;20162;-85
2023/02/10 13:08:02;;;;;;;47.90;30.40;;;7.60;98.20;;;;;;5045352;28;20176;-84
2023/02/10 13:10:50;;;;;;;49.80;30.53;;;7.50;96.50;;;;;;5043985;28;20158;-88
2023/02/10 13:13:24;;;;;;;52.87;31.50;;;7.50;97.20;;;;;;5045566;28;20264;-86
2023/02/10 13:16:01;;;;;;;51.73;31.87;;;7.50;97.40;;;;;;5052419;28;20200;-85
2023/02/10 13:18:35;;;;;;;57.77;34.20;;;7.50;98.10;;;;;;5044875;28;20225;-83
2023/02/10 13:21:18;;;;;;;54.27;32.57;;;7.50;97.70;;;;;;5055391;28;20178;-85